Time;durP1;ratioP1;P1;durP2;ratioP2;P2;SDS_P1;SDS_P2;PMS_P1;PMS_P2;Temp;Humidity;BMP_temperature;BMP_pressure;BME280_temperature;BME280_humidity;BME280_pressure;Samples;Min_cycle;Max_cycle;Signal;HPM_P1;HPM_P2
2021/12/09 00:02:50;;;;;;;10.2;4.2;;;;;;;;;;;;;-82
2021/12/09 00:04:35;;;;;;;;;;;;;;;1.85;91.97266;100117.4;;;;-83
2021/12/09 00:09:35;;;;;;;;;;;;;;;1.86;91.78906;100119.3;;;;-81
2021/12/09 00:14:36;;;;;;;;;;;;;;;1.93;91.94531;100122.6;;;;-81
2021/12/09 00:19:35;;;;;;;;;;;;;;;1.94;91.82813;100128.6;;;;-82
2021/12/09 00:24:36;;;;;;;;;;;;;;;2.01;92.00586;100121.9;;;;-82
2021/12/09 00:29:37;;;;;;;;;;;;;;;2.02;91.82422;100128.1;;;;-83
2021/12/09 00:32:49;;;;;;;15.4;4.4;;;;;;;;;;;;;-81
2021/12/09 00:34:37;;;;;;;;;;;;;;;2.01;91.82227;100126.4;;;;-81
2021/12/09 00:39:35;;;;;;;;;;;;;;;2.03;91.83496;100129.2;;;;-81
2021/12/09 00:44:35;;;;;;;;;;;;;;;2.04;91.70703;100130.4;;;;-80
2021/12/09 00:49:35;;;;;;;;;;;;;;;2.03;91.69629;100131.1;;;;-81
2021/12/09 00:54:35;;;;;;;;;;;;;;;2;91.6582;100132.6;;;;-81
2021/12/09 00:59:35;;;;;;;;;;;;;;;1.99;91.5791;100128.4;;;;-81
2021/12/09 01:02:47;;;;;;;10.4;4.6;;;;;;;;;;;;;-81
2021/12/09 01:04:35;;;;;;;;;;;;;;;2.01;91.64746;100138.1;;;;-81
2021/12/09 01:09:36;;;;;;;;;;;;;;;1.97;91.47559;100134.9;;;;-81
2021/12/09 01:14:37;;;;;;;;;;;;;;;1.95;91.50586;100141.3;;;;-81
2021/12/09 01:19:35;;;;;;;;;;;;;;;1.95;91.52734;100151;;;;-82
2021/12/09 01:24:35;;;;;;;;;;;;;;;1.92;91.44629;100159;;;;-82
2021/12/09 01:29:38;;;;;;;;;;;;;;;1.9;91.43164;100160.5;;;;-81
2021/12/09 01:32:49;;;;;;;11.1;4.7;;;;;;;;;;;;;-82
2021/12/09 01:34:36;;;;;;;;;;;;;;;1.86;91.32422;100155.9;;;;-82
2021/12/09 01:39:35;;;;;;;;;;;;;;;1.83;91.30762;100154.1;;;;-82
2021/12/09 01:44:35;;;;;;;;;;;;;;;1.79;91.29883;100145.2;;;;-82
2021/12/09 01:49:36;;;;;;;;;;;;;;;1.74;91.11621;100144.1;;;;-84
2021/12/09 01:54:36;;;;;;;;;;;;;;;1.71;91.14258;100141.7;;;;-83
2021/12/09 01:59:36;;;;;;;;;;;;;;;1.67;91.10254;100142.8;;;;-83
2021/12/09 02:02:45;;;;;;;12.3;4.9;;;;;;;;;;;;;-83
2021/12/09 02:04:35;;;;;;;;;;;;;;;1.64;91.09277;100143.5;;;;-83
2021/12/09 02:09:38;;;;;;;;;;;;;;;1.61;91.06543;100140.8;;;;-82
2021/12/09 02:14:37;;;;;;;;;;;;;;;1.57;91.02539;100140.5;;;;-82
2021/12/09 02:19:35;;;;;;;;;;;;;;;1.53;91.01758;100145.5;;;;-82
2021/12/09 02:24:35;;;;;;;;;;;;;;;1.51;91.0332;100150.3;;;;-82
2021/12/09 02:29:36;;;;;;;;;;;;;;;1.47;91.01465;100143.2;;;;-82
2021/12/09 02:32:43;;;;;;;10.6;4.4;;;;;;;;;;;;;-82
2021/12/09 02:34:35;;;;;;;;;;;;;;;1.44;91.00879;100146.5;;;;-82
2021/12/09 02:39:38;;;;;;;;;;;;;;;1.41;90.9707;100144.6;;;;-82
2021/12/09 02:44:35;;;;;;;;;;;;;;;1.37;90.99316;100144.8;;;;-82
2021/12/09 02:49:35;;;;;;;;;;;;;;;1.36;91.12109;100143.4;;;;-82
2021/12/09 02:54:36;;;;;;;;;;;;;;;1.33;91.0293;100140.1;;;;-83
2021/12/09 02:59:36;;;;;;;;;;;;;;;1.3;91.09863;100148;;;;-83
2021/12/09 03:02:42;;;;;;;12;4.9;;;;;;;;;;;;;-82
2021/12/09 03:04:41;;;;;;;;;;;;;;;1.28;91.125;100147.4;;;;-82
2021/12/09 03:09:35;;;;;;;;;;;;;;;1.25;91.15332;100148.8;;;;-81
2021/12/09 03:14:35;;;;;;;;;;;;;;;1.24;91.2041;100149.8;;;;-83
2021/12/09 03:19:35;;;;;;;;;;;;;;;1.23;91.14648;100144.5;;;;-83
2021/12/09 03:24:35;;;;;;;;;;;;;;;1.21;91.19824;100144.8;;;;-82
2021/12/09 03:29:35;;;;;;;;;;;;;;;1.19;91.14941;100148.4;;;;-81
2021/12/09 03:32:40;;;;;;;11.7;4.3;;;;;;;;;;;;;-82
2021/12/09 03:34:35;;;;;;;;;;;;;;;1.19;91.21387;100153;;;;-82
2021/12/09 03:39:36;;;;;;;;;;;;;;;1.18;91.22266;100152.6;;;;-82
2021/12/09 03:44:37;;;;;;;;;;;;;;;1.15;91.17383;100159.2;;;;-81
2021/12/09 03:49:35;;;;;;;;;;;;;;;1.13;91.16992;100159.2;;;;-82
2021/12/09 03:54:35;;;;;;;;;;;;;;;1.11;91.19629;100164.4;;;;-82
2021/12/09 03:59:35;;;;;;;;;;;;;;;1.08;91.21387;100164.3;;;;-81
2021/12/09 04:02:38;;;;;;;10.2;4.2;;;;;;;;;;;;;-82
2021/12/09 04:04:35;;;;;;;;;;;;;;;1.07;91.23145;100169.6;;;;-84
2021/12/09 04:09:37;;;;;;;;;;;;;;;1.06;91.19922;100184.9;;;;-82
2021/12/09 04:14:35;;;;;;;;;;;;;;;1.06;91.22949;100186.3;;;;-84
2021/12/09 04:19:35;;;;;;;;;;;;;;;1.03;91.22559;100183.7;;;;-82
2021/12/09 04:24:35;;;;;;;;;;;;;;;1.01;91.30664;100190;;;;-81
2021/12/09 04:29:35;;;;;;;;;;;;;;;1.02;91.36035;100185.3;;;;-83
2021/12/09 04:32:37;;;;;;;8.9;4.1;;;;;;;;;;;;;-83
2021/12/09 04:34:36;;;;;;;;;;;;;;;0.99;91.44238;100184.5;;;;-84
2021/12/09 04:39:35;;;;;;;;;;;;;;;0.99;91.5918;100177.1;;;;-83
2021/12/09 04:44:34;;;;;;;;;;;;;;;0.99;91.69043;100175.4;;;;-83
2021/12/09 04:49:35;;;;;;;;;;;;;;;0.98;91.64551;100174;;;;-83
2021/12/09 04:54:36;;;;;;;;;;;;;;;0.98;91.68652;100182.7;;;;-84
2021/12/09 04:59:36;;;;;;;;;;;;;;;0.97;91.68457;100188.4;;;;-83
2021/12/09 05:02:50;;;;;;;13.2;3.6;;;;;;;;;;;;;-83
2021/12/09 05:04:35;;;;;;;;;;;;;;;0.96;91.65039;100188.9;;;;-83
2021/12/09 05:09:38;;;;;;;;;;;;;;;0.95;91.72461;100187.3;;;;-82
2021/12/09 05:14:35;;;;;;;;;;;;;;;0.94;91.72168;100183.3;;;;-81
2021/12/09 05:19:35;;;;;;;;;;;;;;;0.95;91.72461;100195.7;;;;-82
2021/12/09 05:24:37;;;;;;;;;;;;;;;0.93;91.73145;100192.6;;;;-82
2021/12/09 05:29:38;;;;;;;;;;;;;;;0.94;91.76563;100195.4;;;;-82
2021/12/09 05:32:35;;;;;;;13.4;3.6;;;;;;;;;;;;;-81
2021/12/09 05:34:37;;;;;;;;;;;;;;;0.93;91.7959;100193.8;;;;-82
2021/12/09 05:39:36;;;;;;;;;;;;;;;0.98;92.16309;100187.5;;;;-82
2021/12/09 05:44:34;;;;;;;;;;;;;;;0.96;91.84473;100198.9;;;;-83
2021/12/09 05:49:35;;;;;;;;;;;;;;;0.95;91.8877;100206;;;;-83
2021/12/09 05:54:34;;;;;;;;;;;;;;;0.98;91.93652;100202;;;;-81
2021/12/09 05:59:34;;;;;;;;;;;;;;;0.97;91.85742;100200.7;;;;-82
2021/12/09 06:02:34;;;;;;;11.5;3.3;;;;;;;;;;;;;-84
2021/12/09 06:04:35;;;;;;;;;;;;;;;0.96;91.91992;100202.4;;;;-85
2021/12/09 06:09:35;;;;;;;;;;;;;;;0.96;91.97559;100205.5;;;;-82
2021/12/09 06:22:59;;;;;;;;;;;;;;;0.94;91.87305;100217.2;;;;-84
2021/12/09 06:27:59;;;;;;;;;;;;;;;0.94;91.90527;100214.1;;;;-83
2021/12/09 06:32:32;;;;;;;9.4;3.3;;;;;;;;;;;;;-84
2021/12/09 06:33:01;;;;;;;;;;;;;;;0.92;91.89063;100221.5;;;;-85
2021/12/09 06:38:00;;;;;;;;;;;;;;;0.91;91.9209;100219;;;;-85
2021/12/09 06:43:01;;;;;;;;;;;;;;;0.9;91.84375;100220.3;;;;-81
2021/12/09 06:48:00;;;;;;;;;;;;;;;0.89;91.76465;100219.6;;;;-82
2021/12/09 06:52:59;;;;;;;;;;;;;;;0.88;91.80762;100228.8;;;;-81
2021/12/09 06:58:01;;;;;;;;;;;;;;;0.9;92.00586;100230.4;;;;-82
2021/12/09 07:02:31;;;;;;;11.1;3.3;;;;;;;;;;;;;-84
2021/12/09 07:03:01;;;;;;;;;;;;;;;0.9;91.91699;100235.2;;;;-82
2021/12/09 07:08:06;;;;;;;;;;;;;;;0.91;92.00684;100236.7;;;;-82
2021/12/09 07:13:00;;;;;;;;;;;;;;;0.95;91.99316;100239.5;;;;-82
2021/12/09 07:18:03;;;;;;;;;;;;;;;0.96;92.1377;100241.9;;;;-82
2021/12/09 07:23:02;;;;;;;;;;;;;;;0.97;92.23633;100238.7;;;;-82
2021/12/09 07:28:00;;;;;;;;;;;;;;;0.99;92.29492;100245.1;;;;-82
2021/12/09 07:32:28;;;;;;;12.4;3.7;;;;;;;;;;;;;-83
2021/12/09 07:33:00;;;;;;;;;;;;;;;1.02;92.28906;100250.8;;;;-82
2021/12/09 07:38:01;;;;;;;;;;;;;;;1.05;92.30371;100260.3;;;;-87
2021/12/09 07:43:01;;;;;;;;;;;;;;;1.06;92.27734;100265.2;;;;-87
2021/12/09 07:48:02;;;;;;;;;;;;;;;1.09;92.23828;100271.2;;;;-82
2021/12/09 07:58:05;;;;;;;;;;;;;;;1.16;92.26465;100280;;;;-83
2021/12/09 08:02:39;;;;;;;9.4;3.7;;;;;;;;;;;;;-82
2021/12/09 08:03:08;;;;;;;;;;;;;;;1.16;92.25391;100273.9;;;;-82
2021/12/09 08:08:07;;;;;;;;;;;;;;;1.21;92.26563;100272.5;;;;-82
2021/12/09 08:13:17;;;;;;;;;;;;;;;1.23;92.19434;100276.1;;;;-82
2021/12/09 08:23:03;;;;;;;;;;;;;;;1.25;92.15527;100286.5;;;;-81
2021/12/09 08:28:04;;;;;;;;;;;;;;;1.27;92.21289;100290.3;;;;-81
2021/12/09 08:32:28;;;;;;;12.6;4.5;;;;;;;;;;;;;-82
2021/12/09 08:33:12;;;;;;;;;;;;;;;1.3;92.31641;100295.6;;;;-82
2021/12/09 08:43:08;;;;;;;;;;;;;;;1.36;92.38379;100294.6;;;;-81
2021/12/09 08:48:07;;;;;;;;;;;;;;;1.41;92.31934;100299;;;;-83
2021/12/09 08:52:47;;;;;;;;;;;;;;;1.46;92.31836;100311.9;;;;-82
2021/12/09 08:57:56;;;;;;;;;;;;;;;1.5;92.37012;100311.4;;;;-84
2021/12/09 09:02:27;;;;;;;13.4;5;;;;;;;;;;;;;-84
2021/12/09 09:02:49;;;;;;;;;;;;;;;1.55;92.52246;100310;;;;-83
2021/12/09 09:07:47;;;;;;;;;;;;;;;1.61;92.47949;100316.6;;;;-83
2021/12/09 09:12:48;;;;;;;;;;;;;;;1.66;92.49121;100308.3;;;;-83
2021/12/09 09:17:47;;;;;;;;;;;;;;;1.75;92.64063;100304.2;;;;-81
2021/12/09 09:22:51;;;;;;;;;;;;;;;1.82;92.68652;100306.5;;;;-81
2021/12/09 09:27:49;;;;;;;;;;;;;;;1.88;92.61426;100302.1;;;;-81
2021/12/09 09:32:22;;;;;;;16.7;6.6;;;;;;;;;;;;;-80
2021/12/09 09:32:50;;;;;;;;;;;;;;;1.94;92.57422;100300.9;;;;-80
2021/12/09 09:37:47;;;;;;;;;;;;;;;2.04;92.5498;100297;;;;-81
2021/12/09 09:43:02;;;;;;;;;;;;;;;2.15;92.3916;100295.8;;;;-81
2021/12/09 09:47:47;;;;;;;;;;;;;;;2.22;92.10449;100294.3;;;;-81
2021/12/09 09:52:47;;;;;;;;;;;;;;;2.31;92.03613;100305;;;;-81
2021/12/09 09:57:47;;;;;;;;;;;;;;;2.38;92.02051;100310.7;;;;-80
2021/12/09 10:02:22;;;;;;;23.3;7.3;;;;;;;;;;;;;-81
2021/12/09 10:02:52;;;;;;;;;;;;;;;2.47;91.97363;100315.6;;;;-81
2021/12/09 10:07:47;;;;;;;;;;;;;;;2.55;91.87207;100308.8;;;;-81
2021/12/09 10:13:01;;;;;;;;;;;;;;;2.67;91.80859;100310.5;;;;-81
2021/12/09 10:17:49;;;;;;;;;;;;;;;2.75;91.74121;100309.6;;;;-81
2021/12/09 10:22:47;;;;;;;;;;;;;;;2.85;91.52637;100300.8;;;;-81
2021/12/09 10:27:48;;;;;;;;;;;;;;;2.94;91.38184;100308;;;;-81
2021/12/09 10:32:24;;;;;;;24.2;8.7;;;;;;;;;;;;;-81
2021/12/09 10:32:49;;;;;;;;;;;;;;;3.02;91.34473;100304.3;;;;-81
2021/12/09 10:37:48;;;;;;;;;;;;;;;3.13;91.30273;100300.9;;;;-82
2021/12/09 10:42:49;;;;;;;;;;;;;;;3.2;91.09082;100300.3;;;;-82
2021/12/09 10:47:54;;;;;;;;;;;;;;;3.27;91.19141;100295;;;;-82
2021/12/09 10:52:51;;;;;;;;;;;;;;;3.34;91.05273;100294.2;;;;-82
2021/12/09 10:57:47;;;;;;;;;;;;;;;3.39;91.02246;100282.7;;;;-82
2021/12/09 11:02:19;;;;;;;22.8;8.7;;;;;;;;;;;;;-82
2021/12/09 11:02:57;;;;;;;;;;;;;;;3.44;90.92383;100285.4;;;;-82
2021/12/09 11:07:47;;;;;;;;;;;;;;;3.5;90.88281;100274.7;;;;-82
2021/12/09 11:12:51;;;;;;;;;;;;;;;3.56;90.80762;100266.7;;;;-83
2021/12/09 11:17:50;;;;;;;;;;;;;;;3.61;90.96875;100268.9;;;;-82
2021/12/09 11:22:47;;;;;;;;;;;;;;;3.65;90.8916;100245.6;;;;-82
2021/12/09 11:28:03;;;;;;;;;;;;;;;3.71;90.95801;100254;;;;-81
2021/12/09 11:32:23;;;;;;;24.6;8.6;;;;;;;;;;;;;-81
2021/12/09 11:32:52;;;;;;;;;;;;;;;3.76;90.78223;100248.7;;;;-82
2021/12/09 11:42:51;;;;;;;;;;;;;;;3.87;90.38379;100248.8;;;;-82
2021/12/09 11:47:48;;;;;;;;;;;;;;;4.03;90.39453;100251.1;;;;-81
2021/12/09 11:52:48;;;;;;;;;;;;;;;4.17;90.17578;100248.9;;;;-81
2021/12/09 11:57:53;;;;;;;;;;;;;;;4.3;89.82129;100249;;;;-82
2021/12/09 12:12:56;;;;;;;;;;;;;;;4.33;89.99219;100247.2;;;;-82
2021/12/09 12:17:59;;;;;;;;;;;;;;;4.32;89.62012;100234;;;;-83
2021/12/09 12:23:07;;;;;;;;;;;;;;;4.47;89.75781;100241.3;;;;-83
2021/12/09 12:32:40;;;;;;;24;8.8;;;;;;;;;;;;;-80
2021/12/09 12:33:21;;;;;;;;;;;;;;;4.61;89.12402;100230.6;;;;-81
2021/12/09 12:38:09;;;;;;;;;;;;;;;4.56;89.16895;100231.7;;;;-81
2021/12/09 12:42:57;;;;;;;;;;;;;;;4.56;89.43945;100231;;;;-82
2021/12/09 12:47:54;;;;;;;;;;;;;;;4.55;89.36133;100232.2;;;;-83
2021/12/09 12:52:47;;;;;;;;;;;;;;;4.58;89.67383;100243.5;;;;-82
2021/12/09 12:57:51;;;;;;;;;;;;;;;4.56;89.86523;100246.6;;;;-82
2021/12/09 13:02:43;;;;;;;24.9;9.5;;;;;;;;;;;;;-81
2021/12/09 13:08:09;;;;;;;;;;;;;;;4.56;90.28809;100244.6;;;;-82
2021/12/09 13:12:56;;;;;;;;;;;;;;;4.52;89.95605;100242.3;;;;-83
2021/12/09 13:17:58;;;;;;;;;;;;;;;4.56;90.22266;100240.4;;;;-83
2021/12/09 13:22:47;;;;;;;;;;;;;;;4.56;90.05078;100235.1;;;;-83
2021/12/09 13:27:58;;;;;;;;;;;;;;;4.55;90.13574;100230.6;;;;-83
2021/12/09 13:32:38;;;;;;;26.5;9.3;;;;;;;;;;;;;-82
2021/12/09 13:33:13;;;;;;;;;;;;;;;4.53;90.27344;100231;;;;-82
2021/12/09 13:38:12;;;;;;;;;;;;;;;4.6;90.63477;100234.9;;;;-82
2021/12/09 13:48:05;;;;;;;;;;;;;;;4.66;90.68945;100236.3;;;;-82
2021/12/09 13:57:48;;;;;;;;;;;;;;;4.66;90.56055;100226.7;;;;-82
2021/12/09 14:02:21;;;;;;;25.4;9.9;;;;;;;;;;;;;-82
2021/12/09 14:02:57;;;;;;;;;;;;;;;4.66;90.50488;100228.3;;;;-83
2021/12/09 14:07:56;;;;;;;;;;;;;;;4.68;90.81445;100228.3;;;;-82
2021/12/09 14:12:56;;;;;;;;;;;;;;;4.67;90.55176;100233;;;;-83
2021/12/09 14:17:47;;;;;;;;;;;;;;;4.67;90.82422;100237.1;;;;-82
2021/12/09 14:22:47;;;;;;;;;;;;;;;4.66;90.72363;100231.1;;;;-81
2021/12/09 14:27:47;;;;;;;;;;;;;;;4.66;90.8418;100232.4;;;;-82
2021/12/09 14:32:12;;;;;;;20.1;9.1;;;;;;;;;;;;;-81
2021/12/09 14:32:48;;;;;;;;;;;;;;;4.66;90.74609;100239.7;;;;-82
2021/12/09 14:37:48;;;;;;;;;;;;;;;4.64;90.67676;100231.8;;;;-83
2021/12/09 14:42:59;;;;;;;;;;;;;;;4.64;90.97949;100232;;;;-83
2021/12/09 14:47:56;;;;;;;;;;;;;;;4.62;90.95605;100232.3;;;;-82
2021/12/09 14:52:47;;;;;;;;;;;;;;;4.62;90.97559;100230.6;;;;-80
2021/12/09 14:58:03;;;;;;;;;;;;;;;4.61;90.97363;100228.4;;;;-82
2021/12/09 15:02:16;;;;;;;18.7;8.7;;;;;;;;;;;;;-82
2021/12/09 15:02:53;;;;;;;;;;;;;;;4.57;90.97656;100220.8;;;;-81
2021/12/09 15:07:51;;;;;;;;;;;;;;;4.56;91.13574;100213;;;;-84
2021/12/09 15:12:49;;;;;;;;;;;;;;;4.53;91.2832;100208.2;;;;-83
2021/12/09 15:17:54;;;;;;;;;;;;;;;4.52;91.41113;100212.2;;;;-83
2021/12/09 15:22:55;;;;;;;;;;;;;;;4.52;91.4873;100205.6;;;;-82
2021/12/09 15:28:01;;;;;;;;;;;;;;;4.48;91.64258;100204.9;;;;-82
2021/12/09 15:32:21;;;;;;;18.1;8.8;;;;;;;;;;;;;-82
2021/12/09 15:33:04;;;;;;;;;;;;;;;4.49;91.70801;100206.4;;;;-81
2021/12/09 15:42:50;;;;;;;;;;;;;;;4.44;91.81934;100204;;;;-83
2021/12/09 15:47:47;;;;;;;;;;;;;;;4.43;91.83789;100197.2;;;;-83
2021/12/09 15:52:59;;;;;;;;;;;;;;;4.41;91.9209;100196.9;;;;-83
2021/12/09 15:57:48;;;;;;;;;;;;;;;4.39;92.01465;100202.4;;;;-82
2021/12/09 16:02:11;;;;;;;19.8;9.5;;;;;;;;;;;;;-82
2021/12/09 16:02:47;;;;;;;;;;;;;;;4.38;92.0127;100212.4;;;;-83
2021/12/09 16:07:47;;;;;;;;;;;;;;;4.39;92.29688;100205.9;;;;-83
2021/12/09 16:12:46;;;;;;;;;;;;;;;4.39;92.37305;100194.3;;;;-82
2021/12/09 16:17:47;;;;;;;;;;;;;;;4.39;92.40625;100191.3;;;;-81
2021/12/09 16:22:46;;;;;;;;;;;;;;;4.39;92.42773;100187.9;;;;-82
2021/12/09 16:27:48;;;;;;;;;;;;;;;4.38;92.42578;100190.2;;;;-82
2021/12/09 16:32:08;;;;;;;21.8;9.5;;;;;;;;;;;;;-83
2021/12/09 16:32:47;;;;;;;;;;;;;;;4.35;92.44141;100192.5;;;;-83
2021/12/09 16:37:47;;;;;;;;;;;;;;;4.33;92.47949;100199.2;;;;-83
2021/12/09 16:42:47;;;;;;;;;;;;;;;4.3;92.5166;100197.3;;;;-82
2021/12/09 16:47:47;;;;;;;;;;;;;;;4.29;92.59277;100202.2;;;;-82
2021/12/09 16:52:49;;;;;;;;;;;;;;;4.28;92.58887;100195.9;;;;-81
2021/12/09 16:57:49;;;;;;;;;;;;;;;4.27;92.5957;100196.3;;;;-83
2021/12/09 17:02:10;;;;;;;21.8;9.6;;;;;;;;;;;;;-83
2021/12/09 17:02:50;;;;;;;;;;;;;;;4.25;92.62695;100194.2;;;;-82
2021/12/09 17:07:47;;;;;;;;;;;;;;;4.22;92.62109;100199.3;;;;-84
2021/12/09 17:12:49;;;;;;;;;;;;;;;4.2;92.56055;100183.4;;;;-81
2021/12/09 17:18:02;;;;;;;;;;;;;;;4.16;92.56152;100192.4;;;;-82
2021/12/09 17:22:49;;;;;;;;;;;;;;;4.12;92.49023;100196.8;;;;-83
2021/12/09 17:27:47;;;;;;;;;;;;;;;4.1;92.40918;100208.4;;;;-82
2021/12/09 17:32:07;;;;;;;21.4;8.4;;;;;;;;;;;;;-84
2021/12/09 17:32:47;;;;;;;;;;;;;;;4.07;92.29492;100211.9;;;;-82
2021/12/09 17:37:49;;;;;;;;;;;;;;;4.03;92.24316;100200.5;;;;-83
2021/12/09 17:42:48;;;;;;;;;;;;;;;4.03;92.2959;100198.1;;;;-82
2021/12/09 17:47:47;;;;;;;;;;;;;;;4.03;92.2959;100197.4;;;;-82
2021/12/09 17:52:50;;;;;;;;;;;;;;;4.03;92.35156;100199;;;;-81
2021/12/09 17:57:47;;;;;;;;;;;;;;;4.05;92.2666;100204.4;;;;-83
2021/12/09 18:02:07;;;;;;;19.9;8.1;;;;;;;;;;;;;-82
2021/12/09 18:02:49;;;;;;;;;;;;;;;4.04;92.31055;100208.3;;;;-82
2021/12/09 18:07:47;;;;;;;;;;;;;;;4.05;92.56152;100204.1;;;;-83
2021/12/09 18:12:47;;;;;;;;;;;;;;;4.07;92.56543;100197.6;;;;-82
2021/12/09 18:17:47;;;;;;;;;;;;;;;4.1;92.74512;100197;;;;-83
2021/12/09 18:22:49;;;;;;;;;;;;;;;4.11;92.7998;100193.9;;;;-81
2021/12/09 18:27:47;;;;;;;;;;;;;;;4.12;92.80371;100192.5;;;;-79
2021/12/09 18:32:05;;;;;;;19.5;6.7;;;;;;;;;;;;;-80
2021/12/09 18:32:47;;;;;;;;;;;;;;;4.13;92.88184;100190.2;;;;-78
2021/12/09 18:37:55;;;;;;;;;;;;;;;4.13;92.85059;100172.8;;;;-81
2021/12/09 18:42:47;;;;;;;;;;;;;;;4.13;92.85938;100167.6;;;;-80
2021/12/09 18:47:52;;;;;;;;;;;;;;;4.1;92.78906;100180.8;;;;-83
2021/12/09 18:52:47;;;;;;;;;;;;;;;4.08;92.78516;100174.2;;;;-81
2021/12/09 18:57:47;;;;;;;;;;;;;;;4.07;92.71777;100176;;;;-82
2021/12/09 19:02:04;;;;;;;15.9;6.1;;;;;;;;;;;;;-82
2021/12/09 19:05:53;;;;;;;;;;;;;;;4.04;92.7334;100165.4;;;;-81
2021/12/09 19:10:58;;;;;;;;;;;;;;;4.01;92.7041;100159.9;;;;-82
2021/12/09 19:15:49;;;;;;;;;;;;;;;3.99;92.7002;100150.4;;;;-81
2021/12/09 19:20:49;;;;;;;;;;;;;;;3.95;92.74707;100150.4;;;;-81
2021/12/09 19:25:50;;;;;;;;;;;;;;;3.91;92.63965;100144.5;;;;-80
2021/12/09 19:30:51;;;;;;;;;;;;;;;3.88;92.55762;100135.5;;;;-81
2021/12/09 19:32:08;;;;;;;15.3;5.9;;;;;;;;;;;;;-80
2021/12/09 19:35:59;;;;;;;;;;;;;;;3.84;92.5166;100124.4;;;;-81
2021/12/09 19:41:01;;;;;;;;;;;;;;;3.82;92.59961;100116.7;;;;-81
2021/12/09 19:45:49;;;;;;;;;;;;;;;3.8;92.49609;100107.3;;;;-81
2021/12/09 19:50:55;;;;;;;;;;;;;;;3.77;92.38184;100111.1;;;;-81
2021/12/09 19:55:49;;;;;;;;;;;;;;;3.71;92.2832;100100.4;;;;-82
2021/12/09 20:01:00;;;;;;;;;;;;;;;3.67;92.10254;100093.5;;;;-81
2021/12/09 20:02:04;;;;;;;16.8;5.8;;;;;;;;;;;;;-81
2021/12/09 20:05:49;;;;;;;;;;;;;;;3.62;92.02539;100086;;;;-81
2021/12/09 20:10:49;;;;;;;;;;;;;;;3.59;91.91797;100082.6;;;;-82
2021/12/09 20:15:50;;;;;;;;;;;;;;;3.52;91.81934;100077.9;;;;-81
2021/12/09 20:20:49;;;;;;;;;;;;;;;3.46;91.80664;100074.1;;;;-80
2021/12/09 20:25:49;;;;;;;;;;;;;;;3.41;91.70996;100070.6;;;;-82
2021/12/09 20:30:49;;;;;;;;;;;;;;;3.35;91.65234;100057.3;;;;-81
2021/12/09 20:32:02;;;;;;;15.1;5.6;;;;;;;;;;;;;-81
2021/12/09 20:35:49;;;;;;;;;;;;;;;3.32;91.62305;100054.1;;;;-83
2021/12/09 20:40:49;;;;;;;;;;;;;;;3.26;91.54492;100040.2;;;;-81
2021/12/09 20:45:49;;;;;;;;;;;;;;;3.19;91.51855;100036.7;;;;-81
2021/12/09 20:50:50;;;;;;;;;;;;;;;3.14;91.47656;100032.2;;;;-80
2021/12/09 20:55:50;;;;;;;;;;;;;;;3.07;91.38672;100035.5;;;;-82
2021/12/09 21:00:50;;;;;;;;;;;;;;;3.02;91.375;100026.3;;;;-80
2021/12/09 21:01:59;;;;;;;16;5.5;;;;;;;;;;;;;-81
2021/12/09 21:05:49;;;;;;;;;;;;;;;2.99;91.36914;100020.7;;;;-81
2021/12/09 21:10:52;;;;;;;;;;;;;;;2.97;91.37891;100018.9;;;;-81
2021/12/09 21:15:50;;;;;;;;;;;;;;;2.97;91.70117;100013.4;;;;-81
2021/12/09 21:20:50;;;;;;;;;;;;;;;2.98;91.95215;100001.1;;;;-81
2021/12/09 21:25:50;;;;;;;;;;;;;;;3.04;92.36523;99992.46;;;;-81
2021/12/09 21:30:54;;;;;;;;;;;;;;;3.09;92.69043;99981.05;;;;-83
2021/12/09 21:31:58;;;;;;;29.3;10.1;;;;;;;;;;;;;-81
2021/12/09 21:35:49;;;;;;;;;;;;;;;3.13;92.59277;99980.85;;;;-80
2021/12/09 21:40:55;;;;;;;;;;;;;;;3.16;92.7373;99986.13;;;;-84
2021/12/09 21:45:49;;;;;;;;;;;;;;;3.2;92.9873;99983.17;;;;-85
2021/12/09 21:50:50;;;;;;;;;;;;;;;3.22;93.06543;99981.05;;;;-84
2021/12/09 21:55:52;;;;;;;;;;;;;;;3.23;93.02539;99970.6;;;;-85
2021/12/09 22:00:49;;;;;;;;;;;;;;;3.26;93.02051;99960.02;;;;-82
2021/12/09 22:01:56;;;;;;;27.4;11.9;;;;;;;;;;;;;-81
2021/12/09 22:05:50;;;;;;;;;;;;;;;3.27;93.00098;99955.73;;;;-81
2021/12/09 22:10:49;;;;;;;;;;;;;;;3.29;93.10059;99943.71;;;;-81
2021/12/09 22:15:51;;;;;;;;;;;;;;;3.3;93.0498;99938.7;;;;-81
2021/12/09 22:20:49;;;;;;;;;;;;;;;3.3;93.10645;99927.23;;;;-81
2021/12/09 22:25:49;;;;;;;;;;;;;;;3.3;93.01758;99925.33;;;;-81
2021/12/09 22:30:53;;;;;;;;;;;;;;;3.27;93.02246;99909.56;;;;-80
2021/12/09 22:31:55;;;;;;;27.7;12.1;;;;;;;;;;;;;-81
2021/12/09 22:35:51;;;;;;;;;;;;;;;3.25;92.9541;99901.31;;;;-81
2021/12/09 22:40:49;;;;;;;;;;;;;;;3.24;92.85254;99896.66;;;;-81
2021/12/09 22:45:49;;;;;;;;;;;;;;;3.21;92.8252;99891.28;;;;-80
2021/12/09 22:50:51;;;;;;;;;;;;;;;3.17;92.77344;99881.15;;;;-81
2021/12/09 22:55:49;;;;;;;;;;;;;;;3.14;93.02734;99863.81;;;;-80
2021/12/09 23:00:51;;;;;;;;;;;;;;;3.14;92.97168;99862.6;;;;-82
2021/12/09 23:01:54;;;;;;;32.8;12.6;;;;;;;;;;;;;-81
2021/12/09 23:05:50;;;;;;;;;;;;;;;3.13;92.81934;99855.71;;;;-81
2021/12/09 23:10:49;;;;;;;;;;;;;;;3.12;92.7959;99841.9;;;;-80
2021/12/09 23:15:53;;;;;;;;;;;;;;;3.11;92.75977;99836.98;;;;-81
2021/12/09 23:20:49;;;;;;;;;;;;;;;3.1;92.72559;99836.93;;;;-80
2021/12/09 23:25:51;;;;;;;;;;;;;;;3.08;92.71094;99832.11;;;;-80
2021/12/09 23:30:49;;;;;;;;;;;;;;;3.06;92.71777;99820.64;;;;-81
2021/12/09 23:31:52;;;;;;;23;9.1;;;;;;;;;;;;;-81
2021/12/09 23:35:49;;;;;;;;;;;;;;;3.05;92.62012;99817.43;;;;-81
2021/12/09 23:40:50;;;;;;;;;;;;;;;3.05;92.67188;99800.86;;;;-84
2021/12/09 23:45:49;;;;;;;;;;;;;;;3.05;92.69434;99787;;;;-80
2021/12/09 23:50:50;;;;;;;;;;;;;;;3.05;92.74805;99782.49;;;;-83
2021/12/09 23:55:52;;;;;;;;;;;;;;;3.04;92.68164;99773.97;;;;-84
